createdAt,value
2023-04-01T00:01:09.603Z,10.15
2023-04-01T00:03:38.590Z,10.27
2023-04-01T00:06:20.191Z,10.20
2023-04-01T00:08:48.576Z,10.33
2023-04-01T00:11:20.596Z,10.42
2023-04-01T00:13:49.537Z,10.04
2023-04-01T00:16:23.089Z,10.59
2023-04-01T00:18:53.684Z,10.29
2023-04-01T00:21:26.642Z,10.38
2023-04-01T00:23:55.612Z,9.86
2023-04-01T00:26:25.826Z,10.37
2023-04-01T00:28:58.058Z,10.64
2023-04-01T00:31:35.113Z,10.63
2023-04-01T00:34:08.160Z,10.81
2023-04-01T00:36:38.224Z,10.57
2023-04-01T00:39:20.654Z,10.93
2023-04-01T00:41:54.151Z,10.64
2023-04-01T00:44:26.341Z,10.34
2023-04-01T00:47:01.901Z,10.59
2023-04-01T00:49:33.969Z,10.45
2023-04-01T00:52:06.389Z,10.24
2023-04-01T00:54:36.634Z,10.54
2023-04-01T00:57:08.030Z,10.37
2023-04-01T00:59:40.404Z,10.74
2023-04-01T01:02:12.076Z,10.73
2023-04-01T01:04:41.281Z,10.64
2023-04-01T01:07:24.509Z,10.76
2023-04-01T01:10:01.723Z,10.28
2023-04-01T01:12:38.903Z,10.37
2023-04-01T01:15:14.550Z,10.16
2023-04-01T01:17:54.626Z,10.32
2023-04-01T01:21:07.335Z,10.60
2023-04-01T01:24:07.192Z,10.98
2023-04-01T01:26:55.187Z,10.61
2023-04-01T01:29:49.583Z,10.52
2023-04-01T01:32:27.313Z,10.26
2023-04-01T01:35:03.317Z,10.58
2023-04-01T01:37:34.165Z,10.37
2023-04-01T01:40:13.591Z,10.34
2023-04-01T01:42:50.937Z,9.96
2023-04-01T01:45:23.410Z,10.09
2023-04-01T01:48:02.719Z,10.36
2023-04-01T01:50:38.189Z,10.35
2023-04-01T01:53:17.194Z,10.03
2023-04-01T01:55:47.132Z,10.65
2023-04-01T01:58:20.988Z,10.49
2023-04-01T02:00:53.819Z,10.53
2023-04-01T02:03:29.567Z,10.49
2023-04-01T02:06:07.840Z,10.38
2023-04-01T02:08:50.144Z,10.10
2023-04-01T02:11:21.310Z,10.08
2023-04-01T02:13:59.332Z,9.78
2023-04-01T02:16:33.542Z,9.92
2023-04-01T02:19:09.179Z,10.16
2023-04-01T02:21:39.344Z,10.35
2023-04-01T02:24:14.206Z,10.36
2023-04-01T02:26:45.328Z,10.13
2023-04-01T02:29:16.027Z,9.99
2023-04-01T02:31:48.746Z,9.79
2023-04-01T02:34:20.932Z,9.83
2023-04-01T02:36:56.007Z,10.26
2023-04-01T02:39:27.717Z,10.26
2023-04-01T02:41:56.600Z,9.88
2023-04-01T02:44:25.136Z,9.93
2023-04-01T02:46:58.519Z,10.01
2023-04-01T02:49:26.943Z,9.89
2023-04-01T02:51:59.466Z,10.08
2023-04-01T02:54:31.172Z,10.08
2023-04-01T02:56:59.920Z,9.92
2023-04-01T02:59:32.656Z,9.99
2023-04-01T03:02:04.941Z,9.58
2023-04-01T03:04:32.879Z,9.69
2023-04-01T03:07:02.627Z,9.48
2023-04-01T03:09:43.765Z,9.66
2023-04-01T03:12:14.160Z,10.17
2023-04-01T03:14:46.839Z,9.92
2023-04-01T03:17:19.209Z,10.01
2023-04-01T03:19:51.943Z,10.11
2023-04-01T03:22:22.382Z,10.10
2023-04-01T03:24:54.413Z,10.36
2023-04-01T03:27:26.496Z,9.96
2023-04-01T03:30:02.093Z,9.73
2023-04-01T03:32:34.694Z,9.67
2023-04-01T03:35:11.332Z,9.68
2023-04-01T03:37:48.080Z,9.95
2023-04-01T03:40:23.235Z,9.79
2023-04-01T03:42:56.588Z,9.37
2023-04-01T03:45:28.928Z,9.64
2023-04-01T03:48:03.179Z,9.45
2023-04-01T03:50:32.292Z,9.56
2023-04-01T03:53:01.626Z,9.59
2023-04-01T03:55:37.649Z,9.25
2023-04-01T03:58:08.379Z,9.45
2023-04-01T04:00:39.735Z,9.44
2023-04-01T04:03:10.823Z,9.27
2023-04-01T04:05:39.946Z,9.45
2023-04-01T04:08:12.786Z,9.71
2023-04-01T04:10:43.970Z,9.02
2023-04-01T04:13:17.415Z,9.52
2023-04-01T04:15:51.430Z,9.29
2023-04-01T04:18:22.458Z,9.18
2023-04-01T04:21:00.066Z,9.17
2023-04-01T04:23:28.394Z,9.02
2023-04-01T04:26:00.323Z,9.15
2023-04-01T04:28:31.818Z,9.29
2023-04-01T04:31:00.015Z,9.04
2023-04-01T04:33:29.419Z,9.13
2023-04-01T04:36:01.179Z,9.13
2023-04-01T04:38:34.603Z,9.02
2023-04-01T04:41:07.958Z,8.93
2023-04-01T04:43:39.145Z,9.11
2023-04-01T04:46:09.834Z,8.89
2023-04-01T04:48:48.257Z,8.93
2023-04-01T04:51:17.499Z,8.74
2023-04-01T04:53:52.726Z,9.12
2023-04-01T04:56:28.554Z,8.56
2023-04-01T04:58:59.939Z,9.00
2023-04-01T05:01:35.886Z,8.98
2023-04-01T05:04:04.429Z,9.01
2023-04-01T05:06:36.555Z,8.80
2023-04-01T05:09:05.359Z,9.15
2023-04-01T05:11:37.028Z,9.15
2023-04-01T05:14:10.311Z,9.06
2023-04-01T05:16:41.234Z,8.97
2023-04-01T05:19:10.181Z,8.99
2023-04-01T05:21:41.405Z,9.10
2023-04-01T05:24:14.023Z,9.29
2023-04-01T05:26:43.999Z,9.39
2023-04-01T05:29:16.466Z,7.87
2023-04-01T05:31:49.863Z,9.41
2023-04-01T05:34:18.034Z,9.55
2023-04-01T05:36:48.979Z,9.45
2023-04-01T05:39:19.951Z,9.79
2023-04-01T05:44:38.394Z,9.51
2023-04-01T05:47:06.844Z,9.61
2023-04-01T05:49:38.457Z,9.71
2023-04-01T05:52:10.757Z,9.78
2023-04-01T05:54:40.258Z,10.01
2023-04-01T05:57:12.622Z,9.78
2023-04-01T05:59:42.385Z,9.86
2023-04-01T06:02:13.432Z,9.75
2023-04-01T06:04:50.892Z,9.73
2023-04-01T06:07:20.343Z,9.66
2023-04-01T06:09:49.724Z,9.90
2023-04-01T06:12:37.388Z,9.96
2023-04-01T06:15:18.924Z,9.86
2023-04-01T06:18:13.664Z,9.95
2023-04-01T06:20:46.068Z,9.96
2023-04-01T06:23:27.825Z,9.75
2023-04-01T06:26:24.340Z,9.77
2023-04-01T06:29:19.749Z,9.36
2023-04-01T06:32:00.932Z,9.35
2023-04-01T06:34:57.892Z,9.64
2023-04-01T06:37:53.444Z,9.89
2023-04-01T06:40:35.073Z,9.57
2023-04-01T06:43:19.502Z,9.58
2023-04-01T06:46:01.188Z,9.48
2023-04-01T06:48:44.487Z,9.46
2023-04-01T06:51:24.232Z,9.44
2023-04-01T06:54:03.020Z,9.73
2023-04-01T06:56:32.832Z,9.49
2023-04-01T06:59:06.610Z,9.50
2023-04-01T07:01:44.974Z,9.50
2023-04-01T07:04:27.326Z,9.69
2023-04-01T07:06:58.538Z,9.57
2023-04-01T07:09:30.614Z,9.63
2023-04-01T07:12:07.448Z,9.58
2023-04-01T07:14:41.587Z,9.91
2023-04-01T07:17:19.156Z,9.50
2023-04-01T07:19:51.728Z,9.73
2023-04-01T07:22:41.316Z,9.82
2023-04-01T07:25:26.910Z,9.56
2023-04-01T07:27:58.890Z,9.93
2023-04-01T07:30:35.507Z,9.83
2023-04-01T07:33:10.779Z,9.70
2023-04-01T07:35:46.791Z,9.65
2023-04-01T07:38:28.228Z,9.50
2023-04-01T07:41:09.496Z,8.75
2023-04-01T07:43:54.598Z,9.73
2023-04-01T07:46:37.874Z,9.67
2023-04-01T07:49:19.962Z,9.83
2023-04-01T07:51:59.438Z,9.47
2023-04-01T07:54:35.784Z,9.35
2023-04-01T07:57:13.760Z,9.63
2023-04-01T07:59:49.746Z,9.82
2023-04-01T08:02:33.259Z,9.88
2023-04-01T08:05:12.891Z,9.64
2023-04-01T08:07:48.618Z,9.60
2023-04-01T08:10:24.379Z,9.59
2023-04-01T08:13:02.672Z,9.60
2023-04-01T08:15:36.654Z,9.62
2023-04-01T08:18:16.833Z,9.70
2023-04-01T08:20:54.620Z,9.73
2023-04-01T08:23:27.299Z,9.96
2023-04-01T08:25:57.714Z,9.69
2023-04-01T08:28:30.718Z,9.69
2023-04-01T08:31:02.105Z,9.37
2023-04-01T08:33:33.827Z,9.90
2023-04-01T08:36:09.593Z,9.62
2023-04-01T08:38:41.769Z,9.37
2023-04-01T08:41:30.518Z,9.54
2023-04-01T08:44:28.850Z,9.63
2023-04-01T08:47:12.337Z,9.81
2023-04-01T08:50:16.739Z,9.78
2023-04-01T08:52:50.784Z,9.82
2023-04-01T08:55:40.322Z,9.75
2023-04-01T08:58:48.170Z,9.62
2023-04-01T09:01:26.361Z,9.83
2023-04-01T09:04:08.479Z,10.03
2023-04-01T09:06:44.006Z,10.04
2023-04-01T09:09:26.644Z,10.09
2023-04-01T09:12:11.977Z,10.27
2023-04-01T09:15:01.103Z,9.94
2023-04-01T09:18:10.249Z,10.28
2023-04-01T09:21:30.508Z,10.06
2023-04-01T09:24:30.878Z,9.97
2023-04-01T09:27:16.813Z,10.46
2023-04-01T09:30:28.395Z,10.52
2023-04-01T09:33:46.976Z,10.29
2023-04-01T09:36:36.509Z,10.30
2023-04-01T09:39:24.791Z,10.12
2023-04-01T09:42:17.577Z,10.20
2023-04-01T09:45:02.568Z,10.50
2023-04-01T09:47:53.195Z,10.35
2023-04-01T09:50:47.291Z,10.22
2023-04-01T09:53:29.730Z,10.25
2023-04-01T09:56:39.066Z,8.83
2023-04-01T09:59:48.948Z,9.90
2023-04-01T10:02:55.175Z,10.11
2023-04-01T10:06:01.033Z,10.42
2023-04-01T10:08:58.742Z,10.68
2023-04-01T10:12:02.332Z,10.92
2023-04-01T10:15:27.064Z,11.09
2023-04-01T10:18:42.485Z,11.16
2023-04-01T10:21:45.738Z,11.02
2023-04-01T10:24:42.749Z,10.71
2023-04-01T10:27:38.167Z,9.99
2023-04-01T10:30:55.159Z,10.79
2023-04-01T10:34:06.761Z,10.64
2023-04-01T10:36:54.078Z,10.60
2023-04-01T10:39:36.427Z,10.90
2023-04-01T10:42:46.417Z,11.14
2023-04-01T10:45:54.094Z,10.98
2023-04-01T10:49:14.497Z,11.01
2023-04-01T10:52:27.277Z,11.10
2023-04-01T10:55:13.411Z,10.71
2023-04-01T10:57:57.853Z,10.56
2023-04-01T11:00:53.459Z,10.90
2023-04-01T11:04:14.266Z,11.07
2023-04-01T11:07:23.378Z,11.17
2023-04-01T11:10:28.160Z,11.04
2023-04-01T11:13:28.231Z,10.77
2023-04-01T11:16:29.190Z,10.75
2023-04-01T11:19:48.870Z,10.68
2023-04-01T11:23:11.918Z,11.22
2023-04-01T11:26:11.078Z,11.08
2023-04-01T11:29:02.290Z,11.20
2023-04-01T11:31:49.403Z,11.07
2023-04-01T11:34:44.035Z,10.96
2023-04-01T11:37:40.991Z,11.12
2023-04-01T11:40:17.345Z,10.82
2023-04-01T11:42:54.007Z,10.90
2023-04-01T11:45:36.491Z,11.22
2023-04-01T11:48:19.758Z,11.05
2023-04-01T11:51:08.787Z,10.98
2023-04-01T11:53:47.787Z,10.89
2023-04-01T11:56:24.922Z,10.87
2023-04-01T11:59:06.958Z,11.03
2023-04-01T12:01:57.723Z,11.04
2023-04-01T12:04:37.957Z,10.82
2023-04-01T12:07:18.597Z,11.11
2023-04-01T12:09:57.276Z,11.19
2023-04-01T12:12:30.384Z,10.71
2023-04-01T12:15:05.827Z,10.92
2023-04-01T12:17:43.040Z,11.02
2023-04-01T12:20:31.569Z,10.94
2023-04-01T12:23:22.748Z,10.84
2023-04-01T12:26:08.822Z,10.74
2023-04-01T12:28:45.708Z,10.91
2023-04-01T12:31:24.242Z,10.79
2023-04-01T12:34:19.575Z,10.95
2023-04-01T12:36:59.075Z,10.66
2023-04-01T12:40:00.994Z,10.92
2023-04-01T12:42:45.995Z,10.80
2023-04-01T12:45:29.984Z,10.80
2023-04-01T12:48:34.486Z,10.79
2023-04-01T12:51:33.186Z,10.79
2023-04-01T12:54:23.387Z,10.78
2023-04-01T12:57:00.941Z,11.12
2023-04-01T12:59:53.936Z,11.18
2023-04-01T13:02:33.419Z,10.63
2023-04-01T13:05:27.445Z,11.07
2023-04-01T13:08:14.361Z,11.07
2023-04-01T13:11:07.867Z,11.23
2023-04-01T13:14:31.446Z,11.10
2023-04-01T13:17:10.159Z,10.38
2023-04-01T13:20:02.047Z,11.78
2023-04-01T13:22:57.834Z,11.52
2023-04-01T13:25:33.783Z,11.31
2023-04-01T13:28:05.449Z,11.21
2023-04-01T13:30:40.764Z,11.12
2023-04-01T13:33:18.278Z,10.96
2023-04-01T13:35:51.556Z,11.23
2023-04-01T13:38:46.707Z,10.96
2023-04-01T13:41:40.787Z,11.05
2023-04-01T13:44:16.886Z,10.93
2023-04-01T13:47:02.818Z,11.33
2023-04-01T13:49:49.085Z,11.15
2023-04-01T13:52:28.039Z,11.33
2023-04-01T13:55:25.210Z,10.85
2023-04-01T13:58:16.732Z,10.95
2023-04-01T14:00:57.617Z,11.14
2023-04-01T14:03:41.480Z,11.04
2023-04-01T14:06:17.029Z,11.42
2023-04-01T14:09:04.216Z,11.61
2023-04-01T14:11:37.199Z,11.40
2023-04-01T14:14:15.307Z,10.91
2023-04-01T14:17:23.142Z,11.30
2023-04-01T14:20:42.081Z,10.93
2023-04-01T14:23:40.583Z,11.18
2023-04-01T14:26:28.683Z,11.39
2023-04-01T14:29:03.972Z,11.31
2023-04-01T14:31:46.346Z,11.13
2023-04-01T14:34:23.916Z,11.66
2023-04-01T14:37:05.655Z,11.08
2023-04-01T14:39:51.455Z,11.05
2023-04-01T14:42:40.843Z,10.77
2023-04-01T14:45:50.745Z,11.21
2023-04-01T14:48:28.039Z,11.18
2023-04-01T14:54:02.316Z,11.02
2023-04-01T14:57:03.943Z,10.88
2023-04-01T14:59:35.586Z,10.95
2023-04-01T15:02:20.900Z,11.36
2023-04-01T15:05:04.935Z,11.39
2023-04-01T15:07:57.958Z,11.51
2023-04-01T15:11:01.619Z,11.72
2023-04-01T15:13:57.950Z,11.36
2023-04-01T15:16:29.385Z,11.65
2023-04-01T15:19:04.439Z,11.10
2023-04-01T15:22:06.502Z,11.55
2023-04-01T15:24:46.461Z,12.04
2023-04-01T15:27:35.473Z,11.51
2023-04-01T15:30:16.035Z,11.71
2023-04-01T15:32:54.441Z,11.17
2023-04-01T15:35:34.122Z,11.12
2023-04-01T15:38:09.571Z,11.19
2023-04-01T15:40:45.866Z,11.23
2023-04-01T15:43:23.252Z,11.08
2023-04-01T15:45:58.199Z,10.90
2023-04-01T15:48:41.458Z,11.04
2023-04-01T15:51:23.482Z,10.97
2023-04-01T15:54:12.029Z,11.09
2023-04-01T15:56:56.475Z,10.90
2023-04-01T15:59:44.746Z,10.98
2023-04-01T16:02:21.500Z,11.28
2023-04-01T16:04:56.945Z,11.12
2023-04-01T16:07:53.961Z,11.16
2023-04-01T16:10:33.101Z,11.00
2023-04-01T16:13:23.442Z,11.13
2023-04-01T16:16:03.790Z,11.37
2023-04-01T16:18:48.729Z,11.02
2023-04-01T16:21:27.827Z,11.19
2023-04-01T16:24:03.271Z,10.98
2023-04-01T16:26:34.271Z,10.91
2023-04-01T16:29:10.128Z,10.95
2023-04-01T16:31:47.544Z,10.90
2023-04-01T16:34:22.740Z,11.22
2023-04-01T16:36:56.138Z,11.43
2023-04-01T16:39:42.512Z,11.11
2023-04-01T16:42:23.320Z,11.21
2023-04-01T16:44:57.981Z,11.08
2023-04-01T16:47:32.985Z,11.07
2023-04-01T16:50:03.153Z,11.49
2023-04-01T16:52:45.926Z,11.39
2023-04-01T16:55:18.518Z,11.43
2023-04-01T16:57:51.841Z,11.77
2023-04-01T17:00:29.411Z,11.94
2023-04-01T17:03:37.179Z,11.59
2023-04-01T17:06:15.795Z,11.97
2023-04-01T17:09:04.749Z,11.89
2023-04-01T17:11:37.571Z,11.45
2023-04-01T17:14:15.830Z,11.17
2023-04-01T17:17:07.100Z,11.36
2023-04-01T17:20:07.779Z,11.18
2023-04-01T17:22:42.829Z,11.28
2023-04-01T17:25:24.358Z,11.31
2023-04-01T17:27:54.429Z,11.47
2023-04-01T17:30:38.123Z,11.38
2023-04-01T17:33:32.474Z,11.52
2023-04-01T17:36:09.780Z,11.59
2023-04-01T17:38:55.861Z,11.79
2023-04-01T17:41:32.814Z,12.26
2023-04-01T17:44:08.645Z,12.19
2023-04-01T17:47:02.295Z,11.49
2023-04-01T17:49:38.108Z,11.13
2023-04-01T17:52:17.891Z,11.03
2023-04-01T17:54:50.411Z,11.16
2023-04-01T17:57:37.103Z,11.10
2023-04-01T18:00:18.269Z,10.70
2023-04-01T18:02:52.653Z,10.52
2023-04-01T18:05:29.871Z,10.50
2023-04-01T18:08:23.662Z,10.63
2023-04-01T18:11:00.845Z,10.66
2023-04-01T18:14:04.754Z,10.40
2023-04-01T18:16:47.726Z,10.35
2023-04-01T18:19:21.840Z,10.39
2023-04-01T18:21:57.134Z,10.26
2023-04-01T18:24:35.397Z,10.52
2023-04-01T18:27:11.715Z,10.29
2023-04-01T18:29:43.558Z,10.13
2023-04-01T18:32:34.878Z,10.08
2023-04-01T18:35:12.992Z,10.03
2023-04-01T18:37:50.511Z,10.13
2023-04-01T18:40:27.597Z,9.86
2023-04-01T18:43:08.100Z,10.03
2023-04-01T18:45:40.185Z,10.02
2023-04-01T18:48:18.803Z,10.13
2023-04-01T18:50:58.943Z,9.88
2023-04-01T18:53:37.629Z,9.89
2023-04-01T18:56:17.016Z,9.87
2023-04-01T18:58:51.007Z,10.15
2023-04-01T19:01:34.629Z,9.93
2023-04-01T19:04:16.397Z,10.23
2023-04-01T19:06:50.364Z,10.14
2023-04-01T19:09:32.091Z,10.25
2023-04-01T19:12:23.679Z,10.00
2023-04-01T19:15:08.402Z,10.42
2023-04-01T19:17:49.325Z,10.46
2023-04-01T19:20:22.107Z,10.70
2023-04-01T19:23:11.294Z,10.58
2023-04-01T19:25:58.078Z,10.25
2023-04-01T19:28:36.537Z,10.01
2023-04-01T19:31:14.616Z,9.99
2023-04-01T19:33:53.691Z,10.40
2023-04-01T19:36:27.868Z,10.36
2023-04-01T19:39:08.450Z,10.05
2023-04-01T19:41:44.081Z,9.75
2023-04-01T19:44:28.869Z,9.95
2023-04-01T19:47:02.201Z,9.94
2023-04-01T19:49:43.202Z,10.05
2023-04-01T19:52:18.650Z,10.21
2023-04-01T19:54:54.824Z,10.58
2023-04-01T19:57:36.082Z,10.36
2023-04-01T20:00:18.632Z,10.59
2023-04-01T20:03:03.294Z,10.20
2023-04-01T20:05:50.899Z,10.75
2023-04-01T20:08:25.585Z,10.84
2023-04-01T20:11:04.004Z,10.90
2023-04-01T20:13:47.392Z,10.35
2023-04-01T20:16:16.711Z,10.21
2023-04-01T20:18:54.110Z,10.13
2023-04-01T20:21:37.738Z,10.59
2023-04-01T20:24:17.972Z,10.87
2023-04-01T20:26:52.228Z,10.70
2023-04-01T20:29:47.461Z,11.15
2023-04-01T20:32:29.136Z,10.35
2023-04-01T20:35:28.065Z,10.85
2023-04-01T20:38:02.395Z,10.77
2023-04-01T20:40:47.929Z,10.84
2023-04-01T20:43:59.853Z,10.96
2023-04-01T20:46:38.747Z,10.51
2023-04-01T20:50:02.369Z,10.32
2023-04-01T20:52:47.800Z,10.47
2023-04-01T20:55:55.195Z,10.20
2023-04-01T20:58:29.463Z,10.15
2023-04-01T21:01:11.508Z,10.63
2023-04-01T21:03:48.753Z,10.37
2023-04-01T21:06:37.823Z,10.45
2023-04-01T21:09:27.744Z,10.56
2023-04-01T21:12:07.858Z,10.55
2023-04-01T21:14:51.823Z,9.99
2023-04-01T21:17:27.377Z,10.11
2023-04-01T21:20:10.900Z,9.98
2023-04-01T21:22:54.112Z,9.97
2023-04-01T21:25:50.382Z,10.06
2023-04-01T21:28:40.294Z,9.93
2023-04-01T21:31:31.949Z,9.93
2023-04-01T21:34:35.153Z,10.31
2023-04-01T21:37:27.401Z,10.18
2023-04-01T21:40:17.466Z,10.19
2023-04-01T21:42:53.682Z,10.29
2023-04-01T21:45:41.236Z,10.69
2023-04-01T21:48:47.564Z,10.68
2023-04-01T21:51:35.977Z,10.51
2023-04-01T21:54:53.504Z,10.92
2023-04-01T21:57:48.633Z,10.80
2023-04-01T22:00:24.683Z,10.85
2023-04-01T22:03:27.297Z,10.76
2023-04-01T22:06:07.579Z,10.88
2023-04-01T22:08:51.424Z,10.69
2023-04-01T22:11:34.003Z,10.34
2023-04-01T22:14:11.229Z,10.35
2023-04-01T22:16:43.028Z,10.74
2023-04-01T22:19:17.990Z,10.77
2023-04-01T22:21:53.387Z,11.07
2023-04-01T22:24:26.472Z,11.10
2023-04-01T22:27:03.768Z,10.43
2023-04-01T22:29:35.533Z,10.80
2023-04-01T22:32:06.578Z,10.70
2023-04-01T22:34:42.645Z,10.73
2023-04-01T22:37:20.613Z,10.89
2023-04-01T22:40:10.362Z,10.72
2023-04-01T22:42:48.059Z,10.65
2023-04-01T22:45:41.922Z,10.60
2023-04-01T22:48:16.052Z,10.63
2023-04-01T22:50:49.196Z,10.38
2023-04-01T22:53:24.095Z,10.59
2023-04-01T22:55:56.227Z,11.01
2023-04-01T22:58:30.541Z,10.50
2023-04-01T23:01:07.073Z,10.68
2023-04-01T23:03:43.987Z,9.61
2023-04-01T23:06:20.469Z,10.74
2023-04-01T23:09:01.760Z,10.58
2023-04-01T23:11:38.135Z,10.62
2023-04-01T23:14:33.546Z,10.21
2023-04-01T23:17:12.282Z,10.25
2023-04-01T23:19:47.032Z,10.71
2023-04-01T23:22:23.055Z,10.85
2023-04-01T23:24:57.899Z,10.77
2023-04-01T23:27:36.309Z,10.57
2023-04-01T23:30:14.817Z,10.50
2023-04-01T23:32:43.396Z,10.31
2023-04-01T23:35:21.817Z,10.13
2023-04-01T23:37:54.425Z,10.11
2023-04-01T23:40:25.384Z,10.04
2023-04-01T23:42:57.340Z,10.37
2023-04-01T23:45:29.733Z,10.93
2023-04-01T23:47:58.010Z,10.54
2023-04-01T23:50:28.632Z,10.11
2023-04-01T23:53:04.939Z,10.48
2023-04-01T23:55:34.731Z,10.20
2023-04-01T23:58:25.104Z,10.31
